Time;durP1;ratioP1;P1;durP2;ratioP2;P2;SDS_P1;SDS_P2;PMS_P1;PMS_P2;Temp;Humidity;BMP_temperature;BMP_pressure;BME280_temperature;BME280_humidity;BME280_pressure;Samples;Min_cycle;Max_cycle;Signal;HPM_P1;HPM_P2
2024/04/01 00:01:56;;;;;;;30.15;20.58;;;11.70;99.90;;;;;;5037924;28;20132;-61
2024/04/01 00:04:22;;;;;;;33.15;20.27;;;11.60;99.90;;;;;;5041569;28;20040;-61
2024/04/01 00:06:47;;;;;;;27.48;20.15;;;11.60;99.90;;;;;;5042028;28;20084;-61
2024/04/01 00:09:13;;;;;;;29.38;20.23;;;11.60;99.90;;;;;;5074240;28;20474;-61
2024/04/01 00:11:39;;;;;;;25.75;19.73;;;11.50;99.90;;;;;;5042292;28;20477;-60
2024/04/01 00:14:04;;;;;;;27.42;20.23;;;11.60;99.90;;;;;;5039898;28;20041;-61
2024/04/01 00:16:30;;;;;;;27.30;19.98;;;11.50;99.90;;;;;;5042695;28;20443;-61
2024/04/01 00:18:56;;;;;;;26.60;19.33;;;11.40;99.90;;;;;;5040608;28;20465;-61
2024/04/01 00:21:22;;;;;;;29.02;20.30;;;11.40;99.90;;;;;;5039788;28;20039;-61
2024/04/01 00:23:49;;;;;;;30.33;20.05;;;11.40;99.90;;;;;;5044897;28;20103;-61
2024/04/01 00:26:16;;;;;;;30.58;20.40;;;11.30;99.90;;;;;;5042236;28;20479;-61
2024/04/01 00:28:42;;;;;;;26.00;20.90;;;11.30;99.90;;;;;;5045887;28;20128;-62
2024/04/01 00:31:08;;;;;;;30.70;18.73;;;11.20;99.90;;;;;;5040776;28;20037;-61
2024/04/01 00:33:33;;;;;;;25.13;18.60;;;11.20;99.90;;;;;;5039225;28;20073;-61
2024/04/01 00:35:59;;;;;;;24.88;18.17;;;11.20;99.90;;;;;;5039844;28;20033;-61
2024/04/01 00:38:25;;;;;;;23.85;17.88;;;11.20;99.90;;;;;;5043436;28;20037;-61
2024/04/01 00:40:51;;;;;;;24.65;18.17;;;11.20;99.90;;;;;;5046582;28;20557;-61
2024/04/01 00:43:16;;;;;;;23.35;17.55;;;11.10;99.90;;;;;;5038970;28;20446;-61
2024/04/01 00:45:47;;;;;;;28.10;18.35;;;11.10;99.90;;;;;;5041232;28;20126;-61
2024/04/01 00:48:15;;;;;;;26.00;17.63;;;11.10;99.90;;;;;;5037580;28;20118;-61
2024/04/01 00:50:47;;;;;;;22.35;17.48;;;11.00;99.90;;;;;;5038395;28;20411;-61
2024/04/01 00:53:16;;;;;;;22.98;17.83;;;11.10;99.90;;;;;;5038954;28;20508;-61
2024/04/01 00:55:44;;;;;;;24.70;17.40;;;11.00;99.90;;;;;;5037835;28;20065;-61
2024/04/01 00:58:11;;;;;;;22.70;16.65;;;11.10;99.90;;;;;;5069597;28;20041;-61
2024/04/01 01:00:37;;;;;;;23.40;15.20;;;11.10;99.90;;;;;;5034465;28;20083;-61
2024/04/01 01:03:04;;;;;;;21.75;16.00;;;11.10;99.90;;;;;;5040826;28;20441;-61
2024/04/01 01:05:32;;;;;;;24.05;16.42;;;11.10;99.90;;;;;;5041549;28;20037;-61
2024/04/01 01:07:58;;;;;;;20.73;14.90;;;11.10;99.90;;;;;;5039257;28;20523;-61
2024/04/01 01:10:24;;;;;;;21.60;14.70;;;11.10;99.90;;;;;;5043985;28;20546;-61
2024/04/01 01:12:51;;;;;;;18.92;14.07;;;11.20;99.90;;;;;;5046425;28;20041;-61
2024/04/01 01:15:17;;;;;;;20.00;15.02;;;11.20;99.90;;;;;;5045332;28;20362;-61
2024/04/01 01:17:45;;;;;;;21.17;13.65;;;11.20;99.90;;;;;;5046095;28;20037;-61
2024/04/01 01:20:14;;;;;;;20.88;12.60;;;11.20;99.90;;;;;;5037660;28;20650;-61
2024/04/01 01:22:40;;;;;;;17.20;12.13;;;11.20;99.90;;;;;;5039262;28;20041;-61
2024/04/01 01:25:09;;;;;;;18.92;12.40;;;11.10;99.90;;;;;;5042177;28;20041;-61
2024/04/01 01:27:40;;;;;;;18.00;11.98;;;11.10;99.90;;;;;;5036564;28;20560;-61
2024/04/01 01:30:16;;;;;;;18.83;12.40;;;11.10;99.90;;;;;;5032319;28;20048;-61
2024/04/01 01:32:45;;;;;;;18.40;10.70;;;11.10;99.90;;;;;;5039070;28;20040;-61
2024/04/01 01:35:15;;;;;;;17.48;11.55;;;11.10;99.90;;;;;;5036889;28;20116;-61
2024/04/01 01:37:41;;;;;;;16.35;11.07;;;11.00;99.90;;;;;;5037786;28;20037;-61
2024/04/01 01:40:08;;;;;;;14.52;9.82;;;11.10;99.90;;;;;;5037556;28;20040;-60
2024/04/01 01:42:37;;;;;;;15.57;11.75;;;11.00;99.90;;;;;;5040988;28;20045;-61
2024/04/01 01:45:04;;;;;;;19.40;11.23;;;11.00;99.90;;;;;;5040166;28;20040;-61
2024/04/01 01:47:34;;;;;;;14.82;10.32;;;11.00;99.90;;;;;;5043480;28;20037;-61
2024/04/01 01:50:01;;;;;;;19.23;11.30;;;11.00;99.90;;;;;;5039226;28;20060;-61
2024/04/01 01:52:26;;;;;;;16.65;11.68;;;11.00;99.90;;;;;;5040539;28;20086;-61
2024/04/01 01:54:53;;;;;;;16.60;11.82;;;10.90;99.90;;;;;;5039807;28;20045;-61
2024/04/01 01:57:19;;;;;;;15.98;11.90;;;10.80;99.90;;;;;;5042011;28;20044;-61
2024/04/01 01:59:45;;;;;;;18.52;11.73;;;10.80;99.90;;;;;;5044077;28;20500;-61
2024/04/01 02:02:11;;;;;;;18.77;12.07;;;10.70;99.90;;;;;;5048386;28;20123;-61
2024/04/01 02:04:37;;;;;;;18.98;10.85;;;10.70;99.90;;;;;;5043793;28;20053;-61
2024/04/01 02:07:04;;;;;;;17.73;11.32;;;10.70;99.90;;;;;;5044805;28;20049;-61
2024/04/01 02:09:30;;;;;;;20.63;11.48;;;10.70;99.90;;;;;;5045737;28;20045;-61
2024/04/01 02:11:56;;;;;;;14.75;10.50;;;10.80;99.90;;;;;;5044291;28;20255;-61
2024/04/01 02:14:22;;;;;;;16.55;10.30;;;10.80;99.90;;;;;;5037715;28;20041;-61
2024/04/01 02:16:48;;;;;;;14.15;9.25;;;10.60;99.90;;;;;;5042073;28;20037;-61
2024/04/01 02:19:15;;;;;;;17.90;10.60;;;10.70;99.90;;;;;;5052364;28;20053;-63
2024/04/01 02:21:44;;;;;;;12.77;9.30;;;10.60;99.90;;;;;;5039382;28;20071;-61
2024/04/01 02:24:10;;;;;;;;;;;10.70;99.90;;;;;;5041408;28;20520;-62
2024/04/01 02:26:36;;;;;;;15.15;9.55;;;10.60;99.90;;;;;;5040682;28;20222;-61
2024/04/01 02:29:02;;;;;;;16.58;10.60;;;10.60;99.90;;;;;;5040533;28;20052;-62
2024/04/01 02:31:28;;;;;;;14.43;9.73;;;10.60;99.90;;;;;;5042684;28;20037;-61
2024/04/01 02:33:53;;;;;;;13.35;9.70;;;10.60;99.90;;;;;;5042257;28;20048;-61
2024/04/01 02:36:19;;;;;;;16.10;9.38;;;10.60;99.90;;;;;;5041782;28;20044;-60
2024/04/01 02:38:48;;;;;;;13.95;10.07;;;10.60;99.90;;;;;;5040877;28;20049;-61
2024/04/01 02:41:14;;;;;;;15.88;9.43;;;10.50;99.90;;;;;;5040825;28;20037;-62
2024/04/01 02:43:42;;;;;;;21.05;12.02;;;10.50;99.90;;;;;;5044180;28;20029;-61
2024/04/01 02:46:08;;;;;;;19.40;10.73;;;10.60;99.90;;;;;;5044437;28;20408;-62
2024/04/01 02:48:33;;;;;;;18.33;10.75;;;10.60;99.90;;;;;;5040296;28;20041;-61
2024/04/01 02:51:00;;;;;;;15.80;10.35;;;10.50;99.90;;;;;;5043377;28;20040;-60
2024/04/01 02:53:26;;;;;;;17.95;10.45;;;10.60;99.90;;;;;;5040465;28;20136;-61
2024/04/01 02:55:52;;;;;;;18.27;11.20;;;10.60;99.90;;;;;;5042560;28;20037;-61
2024/04/01 02:58:18;;;;;;;14.82;10.77;;;10.60;99.90;;;;;;5044458;28;20040;-61
2024/04/01 03:00:45;;;;;;;17.23;10.65;;;10.60;99.90;;;;;;5044675;28;20045;-61
2024/04/01 03:03:14;;;;;;;19.20;12.40;;;10.50;99.90;;;;;;5046310;28;20083;-61
2024/04/01 03:05:40;;;;;;;;;;;10.60;99.90;;;;;;5040584;28;20083;-61
2024/04/01 03:08:07;;;;;;;17.70;11.52;;;10.60;99.90;;;;;;5040651;28;19925;-61
2024/04/01 03:10:36;;;;;;;23.13;11.60;;;10.50;99.90;;;;;;5034297;28;20041;-60
2024/04/01 03:13:06;;;;;;;16.70;11.07;;;10.60;99.90;;;;;;5042296;28;20040;-61
2024/04/01 03:15:33;;;;;;;17.58;12.05;;;10.60;99.90;;;;;;5040420;28;20503;-61
2024/04/01 03:17:59;;;;;;;16.83;11.82;;;10.50;99.90;;;;;;5037968;28;20136;-60
2024/04/01 03:20:25;;;;;;;18.98;12.40;;;10.60;99.90;;;;;;5034561;28;20090;-61
2024/04/01 03:22:51;;;;;;;19.45;12.80;;;10.50;99.90;;;;;;5040718;28;20879;-61
2024/04/01 03:25:17;;;;;;;23.45;13.68;;;10.50;99.90;;;;;;5043718;28;20040;-61
2024/04/01 03:27:43;;;;;;;22.80;14.18;;;10.50;99.90;;;;;;5047108;28;20045;-61
2024/04/01 03:30:10;;;;;;;19.02;13.35;;;10.60;99.90;;;;;;5041122;28;20464;-61
2024/04/01 03:32:36;;;;;;;20.63;13.80;;;10.50;99.90;;;;;;5033998;28;20095;-61
2024/04/01 03:35:04;;;;;;;27.38;14.40;;;10.40;99.90;;;;;;5049309;28;20630;-61
2024/04/01 03:37:30;;;;;;;18.85;14.32;;;10.40;99.90;;;;;;5045522;28;20037;-61
2024/04/01 03:39:56;;;;;;;21.55;14.45;;;10.40;99.90;;;;;;5044287;28;20036;-61
2024/04/01 03:42:22;;;;;;;18.42;13.13;;;10.40;99.90;;;;;;5038742;28;20045;-61
2024/04/01 03:44:53;;;;;;;20.95;13.15;;;10.50;99.90;;;;;;5042968;28;20578;-63
2024/04/01 03:47:20;;;;;;;17.77;13.23;;;10.40;99.90;;;;;;5035530;28;20051;-61
2024/04/01 03:49:47;;;;;;;17.95;13.35;;;10.40;99.90;;;;;;5039282;28;20067;-61
2024/04/01 03:52:13;;;;;;;15.68;11.48;;;10.30;99.90;;;;;;5043804;28;20044;-62
2024/04/01 03:54:38;;;;;;;18.63;14.02;;;10.40;99.90;;;;;;5040979;28;20041;-61
2024/04/01 03:57:04;;;;;;;22.42;13.32;;;10.30;99.90;;;;;;5041140;28;20403;-60
2024/04/01 03:59:30;;;;;;;22.13;13.70;;;10.40;99.90;;;;;;5043690;28;20175;-61
2024/04/01 04:01:56;;;;;;;26.52;14.85;;;10.40;99.90;;;;;;5041362;28;20044;-61
2024/04/01 04:04:21;;;;;;;25.67;14.50;;;10.30;99.90;;;;;;5038195;28;20040;-62
2024/04/01 04:06:47;;;;;;;21.00;13.70;;;10.30;99.90;;;;;;5040653;28;20055;-62
2024/04/01 04:09:17;;;;;;;19.13;12.52;;;10.30;99.90;;;;;;5040159;28;20041;-62
2024/04/01 04:11:49;;;;;;;19.00;13.27;;;10.30;99.90;;;;;;5047191;28;20036;-62
2024/04/01 04:14:20;;;;;;;19.70;13.23;;;10.30;99.90;;;;;;5041903;28;20044;-60
2024/04/01 04:16:46;;;;;;;21.17;14.93;;;10.30;99.90;;;;;;5042504;28;20514;-61
2024/04/01 04:19:13;;;;;;;24.83;13.13;;;10.30;99.90;;;;;;5040316;28;20045;-62
2024/04/01 04:21:39;;;;;;;18.75;13.82;;;10.30;99.90;;;;;;5038744;28;20036;-62
2024/04/01 04:24:05;;;;;;;20.42;13.77;;;10.20;99.90;;;;;;5036874;28;20133;-61
2024/04/01 04:26:30;;;;;;;18.17;13.57;;;10.10;99.90;;;;;;5038892;28;20041;-62
2024/04/01 04:28:56;;;;;;;23.17;13.35;;;10.10;99.90;;;;;;5036696;28;20364;-62
2024/04/01 04:31:22;;;;;;;17.63;13.15;;;10.20;99.90;;;;;;5035725;28;20037;-61
2024/04/01 04:33:48;;;;;;;20.90;13.15;;;10.20;99.90;;;;;;5036782;28;20048;-62
2024/04/01 04:36:14;;;;;;;19.45;13.25;;;10.10;99.90;;;;;;5042183;28;20033;-61
2024/04/01 04:38:40;;;;;;;21.27;14.98;;;10.20;99.90;;;;;;5041317;28;20072;-62
2024/04/01 04:41:06;;;;;;;20.23;12.43;;;10.10;99.90;;;;;;5044279;28;20112;-62
2024/04/01 04:43:32;;;;;;;19.00;15.07;;;10.10;99.90;;;;;;5035590;28;21476;-64
2024/04/01 04:45:59;;;;;;;18.35;12.52;;;10.00;99.90;;;;;;5033435;28;20028;-61
2024/04/01 04:48:28;;;;;;;22.80;14.13;;;10.10;99.90;;;;;;5041956;28;20556;-62
2024/04/01 04:50:54;;;;;;;;;;;10.10;99.90;;;;;;5042597;28;20155;-61
2024/04/01 04:53:20;;;;;;;24.35;14.32;;;10.00;99.90;;;;;;5030650;28;19947;-62
2024/04/01 04:55:46;;;;;;;16.75;13.43;;;10.00;99.90;;;;;;5041788;28;20045;-61
2024/04/01 04:58:11;;;;;;;21.88;13.90;;;10.00;99.90;;;;;;5039002;28;20033;-62
2024/04/01 05:00:37;;;;;;;24.30;15.73;;;10.00;99.90;;;;;;5037946;28;20067;-62
2024/04/01 05:03:06;;;;;;;19.50;14.25;;;10.00;99.90;;;;;;5038604;28;20076;-61
2024/04/01 05:05:33;;;;;;;22.40;12.27;;;9.90;99.90;;;;;;5036772;28;20045;-62
2024/04/01 05:08:00;;;;;;;22.70;14.10;;;9.90;99.90;;;;;;5038194;28;20124;-62
2024/04/01 05:10:26;;;;;;;19.27;13.70;;;9.90;99.90;;;;;;5037386;28;20045;-63
2024/04/01 05:12:51;;;;;;;16.80;13.35;;;9.90;99.90;;;;;;5051813;28;20138;-62
2024/04/01 05:15:17;;;;;;;17.98;13.98;;;9.80;99.90;;;;;;5038666;28;20025;-61
2024/04/01 05:17:43;;;;;;;17.63;14.27;;;9.80;99.90;;;;;;5037079;28;20499;-64
2024/04/01 05:20:13;;;;;;;22.40;15.05;;;9.80;99.90;;;;;;5038583;28;20601;-62
2024/04/01 05:22:39;;;;;;;26.00;16.00;;;9.70;99.90;;;;;;5036086;28;20588;-62
2024/04/01 05:25:05;;;;;;;26.30;16.15;;;9.80;99.90;;;;;;5035426;28;20136;-62
2024/04/01 05:27:31;;;;;;;22.15;15.43;;;9.80;99.90;;;;;;5037400;28;20356;-62
2024/04/01 05:30:09;;;;;;;23.95;17.50;;;9.80;99.90;;;;;;5035639;28;20091;-62
2024/04/01 05:32:35;;;;;;;26.77;18.08;;;9.80;99.90;;;;;;5037127;28;20090;-61
2024/04/01 05:35:05;;;;;;;28.92;16.77;;;9.90;99.90;;;;;;5035981;28;20855;-61
2024/04/01 05:37:34;;;;;;;27.60;16.15;;;9.80;99.90;;;;;;5040267;28;20086;-61
2024/04/01 05:40:00;;;;;;;;;;;9.80;99.90;;;;;;5041100;28;20192;-61
2024/04/01 05:42:26;;;;;;;23.38;15.23;;;9.90;99.90;;;;;;5070599;28;19921;-62
2024/04/01 05:44:52;;;;;;;26.90;16.88;;;9.90;99.90;;;;;;5037885;28;20942;-61
2024/04/01 05:47:17;;;;;;;25.83;17.52;;;9.90;99.90;;;;;;5040506;28;20033;-61
2024/04/01 05:49:43;;;;;;;24.20;15.57;;;9.90;99.90;;;;;;5040366;28;20048;-60
2024/04/01 05:52:09;;;;;;;23.55;17.52;;;9.80;99.90;;;;;;5038000;28;20043;-62
2024/04/01 05:54:34;;;;;;;23.48;16.63;;;10.00;99.90;;;;;;5038646;28;20060;-61
2024/04/01 05:57:01;;;;;;;26.48;17.75;;;9.90;99.90;;;;;;5039977;28;20137;-61
2024/04/01 05:59:27;;;;;;;23.27;17.40;;;10.00;99.90;;;;;;5040029;28;20574;-61
2024/04/01 06:01:54;;;;;;;21.60;17.20;;;10.00;99.90;;;;;;5038826;28;20041;-61
2024/04/01 06:04:21;;;;;;;20.40;15.88;;;10.00;99.90;;;;;;5041653;28;20072;-61
2024/04/01 06:06:47;;;;;;;23.42;17.38;;;9.90;99.90;;;;;;5038877;28;20155;-62
2024/04/01 06:09:13;;;;;;;23.35;18.63;;;10.00;99.90;;;;;;5042256;28;20048;-61
2024/04/01 06:11:39;;;;;;;26.45;16.77;;;9.90;99.90;;;;;;5042790;28;20068;-61
2024/04/01 06:14:06;;;;;;;24.20;18.13;;;10.00;99.90;;;;;;5042325;28;20032;-61
2024/04/01 06:16:31;;;;;;;23.65;16.77;;;10.00;99.90;;;;;;5040359;28;20446;-61
2024/04/01 06:18:57;;;;;;;23.08;16.30;;;10.00;99.90;;;;;;5042193;28;20119;-61
2024/04/01 06:21:23;;;;;;;22.63;17.50;;;10.10;99.90;;;;;;5038888;28;20048;-61
2024/04/01 06:23:49;;;;;;;22.10;17.08;;;10.00;99.90;;;;;;5040664;28;20537;-61
2024/04/01 06:26:14;;;;;;;20.45;15.48;;;10.10;99.90;;;;;;5033823;28;20087;-61
2024/04/01 06:28:40;;;;;;;22.02;17.30;;;10.10;99.90;;;;;;5037276;28;20039;-61
2024/04/01 06:31:06;;;;;;;24.55;17.23;;;10.10;99.90;;;;;;5040591;28;20056;-61
2024/04/01 06:33:33;;;;;;;24.50;17.00;;;10.20;99.90;;;;;;5039889;28;20037;-61
2024/04/01 06:36:05;;;;;;;23.38;17.65;;;10.10;99.90;;;;;;5040638;28;20118;-61
2024/04/01 06:38:31;;;;;;;30.45;18.92;;;10.20;99.90;;;;;;5040278;28;20048;-61
2024/04/01 06:40:57;;;;;;;28.17;17.77;;;10.20;99.90;;;;;;5039760;28;20143;-61
2024/04/01 06:43:23;;;;;;;23.92;18.42;;;10.30;99.90;;;;;;5037584;28;20055;-61
2024/04/01 06:45:58;;;;;;;20.55;17.63;;;10.30;99.90;;;;;;5053486;28;20037;-61
2024/04/01 06:48:24;;;;;;;24.02;18.52;;;10.20;99.90;;;;;;5055706;28;20155;-61
2024/04/01 06:50:50;;;;;;;24.88;18.77;;;10.20;99.90;;;;;;5039104;28;20037;-61
2024/04/01 06:53:17;;;;;;;27.90;19.83;;;10.30;99.90;;;;;;5039432;28;20564;-62
2024/04/01 06:55:47;;;;;;;29.73;20.83;;;10.40;99.90;;;;;;5039970;28;20190;-61
2024/04/01 06:58:13;;;;;;;32.30;20.35;;;10.30;99.90;;;;;;5040222;28;20037;-61
2024/04/01 07:00:39;;;;;;;26.65;20.17;;;10.40;99.90;;;;;;5039610;28;20079;-61
2024/04/01 07:03:06;;;;;;;26.58;20.85;;;10.40;99.90;;;;;;5040124;28;20120;-61
2024/04/01 07:05:32;;;;;;;28.95;21.80;;;10.50;99.90;;;;;;5038952;28;20511;-61
2024/04/01 07:07:59;;;;;;;28.92;19.35;;;10.50;99.90;;;;;;5037069;28;20032;-61
2024/04/01 07:10:28;;;;;;;28.60;19.80;;;10.60;99.90;;;;;;5037797;28;20154;-61
2024/04/01 07:12:54;;;;;;;30.17;21.33;;;10.70;99.90;;;;;;5038683;28;20044;-62
2024/04/01 07:15:20;;;;;;;27.02;20.77;;;10.70;99.90;;;;;;5039117;28;20145;-61
2024/04/01 07:17:46;;;;;;;28.52;19.55;;;10.60;99.90;;;;;;5039535;28;20675;-62
2024/04/01 07:20:12;;;;;;;21.42;17.92;;;10.70;99.90;;;;;;5039631;28;20090;-61
2024/04/01 07:22:41;;;;;;;29.90;18.08;;;10.70;99.90;;;;;;5038932;28;20051;-61
2024/04/01 07:25:07;;;;;;;23.38;19.02;;;10.70;99.90;;;;;;5038336;28;20049;-61
2024/04/01 07:27:34;;;;;;;22.35;19.02;;;10.80;99.90;;;;;;5037057;28;20099;-61
2024/04/01 07:30:07;;;;;;;24.27;19.50;;;10.90;99.90;;;;;;5030371;28;20426;-62
2024/04/01 07:32:34;;;;;;;25.45;17.55;;;10.90;99.90;;;;;;5035932;28;20029;-62
2024/04/01 07:35:00;;;;;;;25.45;19.10;;;10.90;99.90;;;;;;5035731;28;20040;-61
2024/04/01 07:37:29;;;;;;;31.60;18.58;;;11.10;99.90;;;;;;5034517;28;20041;-61
2024/04/01 07:39:56;;;;;;;24.80;18.52;;;11.00;99.90;;;;;;5040238;28;20060;-61
2024/04/01 07:42:22;;;;;;;29.63;19.48;;;11.10;99.90;;;;;;5035040;28;20395;-61
2024/04/01 07:44:49;;;;;;;26.13;19.77;;;11.20;99.90;;;;;;5035860;28;20503;-61
2024/04/01 07:47:15;;;;;;;25.48;19.70;;;11.20;99.90;;;;;;5037759;28;20075;-61
2024/04/01 07:49:41;;;;;;;26.02;19.55;;;11.30;99.90;;;;;;5026198;28;20049;-61
2024/04/01 07:52:09;;;;;;;27.13;18.38;;;11.30;99.90;;;;;;5031733;28;20063;-62
2024/04/01 07:54:34;;;;;;;24.88;19.45;;;11.30;99.90;;;;;;5033816;28;20041;-62
2024/04/01 07:57:02;;;;;;;23.17;17.40;;;11.20;99.90;;;;;;5033530;28;20473;-63
2024/04/01 07:59:34;;;;;;;26.02;19.08;;;11.30;99.90;;;;;;5031055;28;20052;-63
2024/04/01 08:02:00;;;;;;;24.98;18.95;;;11.30;99.90;;;;;;5033146;28;20151;-63
2024/04/01 08:04:27;;;;;;;24.00;18.35;;;11.30;99.90;;;;;;5036683;28;20040;-62
2024/04/01 08:06:54;;;;;;;27.02;18.23;;;11.30;99.90;;;;;;5036855;28;20629;-63
2024/04/01 08:09:20;;;;;;;27.45;19.15;;;11.40;99.90;;;;;;5036247;28;20107;-64
2024/04/01 08:11:47;;;;;;;24.20;19.90;;;11.40;99.90;;;;;;5037370;28;20482;-63
2024/04/01 08:14:12;;;;;;;26.40;20.38;;;11.40;99.90;;;;;;5038588;28;20055;-63
2024/04/01 08:16:38;;;;;;;30.17;20.08;;;11.50;99.90;;;;;;5038507;28;20037;-64
2024/04/01 08:19:04;;;;;;;30.13;20.33;;;11.50;99.90;;;;;;5038284;28;20037;-62
2024/04/01 08:21:30;;;;;;;24.52;19.52;;;11.50;99.90;;;;;;5035771;28;20498;-63
2024/04/01 08:23:55;;;;;;;22.20;17.25;;;11.50;99.90;;;;;;5040401;28;20462;-63
2024/04/01 08:26:21;;;;;;;24.60;17.27;;;11.50;99.90;;;;;;5035865;28;20072;-62
2024/04/01 08:28:50;;;;;;;25.73;18.00;;;11.50;99.90;;;;;;5031752;28;20045;-63
2024/04/01 08:31:16;;;;;;;23.98;17.10;;;11.50;99.90;;;;;;5036364;28;20072;-63
2024/04/01 08:33:41;;;;;;;22.45;18.70;;;11.50;99.90;;;;;;5037083;28;20218;-63
2024/04/01 08:36:07;;;;;;;23.50;18.25;;;11.50;99.90;;;;;;5032766;28;20045;-62
2024/04/01 08:38:33;;;;;;;22.25;17.67;;;11.50;99.90;;;;;;5035936;28;20044;-63
2024/04/01 08:41:19;;;;;;;25.35;19.33;;;11.60;99.90;;;;;;5031743;28;20568;-62
2024/04/01 08:43:51;;;;;;;22.77;18.30;;;11.50;99.90;;;;;;5027803;28;20040;-63
2024/04/01 08:46:18;;;;;;;23.40;18.50;;;11.60;99.90;;;;;;5027870;28;20041;-63
2024/04/01 08:48:49;;;;;;;22.75;18.10;;;11.70;99.90;;;;;;5034487;28;20051;-63
2024/04/01 08:51:19;;;;;;;29.92;20.08;;;11.60;99.90;;;;;;5036984;28;20439;-62
2024/04/01 08:54:01;;;;;;;25.67;19.00;;;11.60;99.90;;;;;;5039028;28;20036;-62
2024/04/01 08:56:30;;;;;;;22.70;16.63;;;11.70;99.90;;;;;;5038271;28;21581;-65
2024/04/01 08:58:57;;;;;;;23.88;17.77;;;11.70;99.90;;;;;;5037584;28;20100;-63
2024/04/01 09:01:23;;;;;;;22.90;18.15;;;11.60;99.90;;;;;;5030730;28;20554;-63
2024/04/01 09:03:49;;;;;;;21.98;17.60;;;11.70;99.90;;;;;;5030904;28;20037;-63
2024/04/01 09:06:19;;;;;;;24.77;16.67;;;11.70;99.90;;;;;;5034074;28;20041;-63
2024/04/01 09:08:46;;;;;;;22.45;17.30;;;11.70;99.90;;;;;;5037908;28;20032;-63
2024/04/01 09:11:15;;;;;;;18.00;15.98;;;11.80;99.90;;;;;;5038945;28;20131;-63
2024/04/01 09:13:40;;;;;;;18.95;16.85;;;11.80;99.90;;;;;;5038429;28;20134;-63
2024/04/01 09:16:07;;;;;;;22.05;16.73;;;11.90;99.90;;;;;;5041060;28;20128;-62
2024/04/01 09:18:36;;;;;;;20.85;16.70;;;11.80;99.90;;;;;;5037099;28;20041;-63
2024/04/01 09:21:05;;;;;;;;;;;11.80;99.90;;;;;;5042267;28;20181;-63
2024/04/01 09:23:40;;;;;;;23.23;16.70;;;11.80;99.90;;;;;;5042822;28;20321;-62
2024/04/01 09:26:06;;;;;;;24.55;17.05;;;11.80;99.90;;;;;;5042386;28;20083;-62
2024/04/01 09:28:32;;;;;;;21.65;16.52;;;11.90;99.90;;;;;;5040207;28;20047;-63
2024/04/01 09:30:58;;;;;;;21.60;16.73;;;11.90;99.90;;;;;;5037409;28;20044;-62
2024/04/01 09:33:24;;;;;;;19.60;15.77;;;11.90;99.90;;;;;;5036301;28;20033;-60
2024/04/01 09:35:51;;;;;;;21.20;16.30;;;11.80;99.90;;;;;;5037220;28;20040;-63
2024/04/01 09:38:17;;;;;;;20.65;15.32;;;11.90;99.90;;;;;;5036876;28;20036;-61
2024/04/01 09:40:49;;;;;;;20.63;16.63;;;11.90;99.90;;;;;;5038272;28;20055;-61
2024/04/01 09:43:20;;;;;;;20.90;15.95;;;11.80;99.90;;;;;;5032312;28;20048;-61
2024/04/01 09:45:47;;;;;;;20.15;15.85;;;11.90;99.90;;;;;;5038691;28;20182;-61
2024/04/01 09:48:14;;;;;;;25.52;17.27;;;11.90;99.90;;;;;;5040282;28;20037;-62
2024/04/01 09:50:43;;;;;;;22.67;16.23;;;12.00;99.90;;;;;;5037695;28;21009;-61
2024/04/01 09:53:09;;;;;;;;;;;12.10;99.90;;;;;;5039429;28;20047;-61
2024/04/01 09:56:01;;;;;;;21.40;16.17;;;12.00;99.90;;;;;;5040544;28;20054;-61
2024/04/01 09:59:04;;;;;;;19.80;15.07;;;12.00;99.90;;;;;;5040560;28;20420;-61
2024/04/01 10:01:30;;;;;;;24.70;16.45;;;12.00;99.90;;;;;;5037965;28;20044;-61
2024/04/01 10:04:24;;;;;;;22.33;15.23;;;12.00;99.90;;;;;;5038226;28;20036;-62
2024/04/01 10:07:04;;;;;;;20.13;14.57;;;12.10;99.90;;;;;;5039043;28;20036;-61
2024/04/01 10:10:07;;;;;;;18.23;14.05;;;12.20;99.90;;;;;;5039411;28;20308;-62
2024/04/01 10:13:19;;;;;;;19.83;14.35;;;12.20;99.90;;;;;;5042281;28;20033;-62
2024/04/01 10:16:05;;;;;;;20.80;14.85;;;12.30;99.90;;;;;;5039551;28;20040;-62
2024/04/01 10:19:09;;;;;;;17.70;14.13;;;12.20;99.90;;;;;;5053741;28;20329;-62
2024/04/01 10:21:56;;;;;;;16.23;14.20;;;12.30;99.90;;;;;;5039711;28;20040;-62
2024/04/01 10:24:25;;;;;;;21.80;15.68;;;12.40;99.90;;;;;;5040897;28;20525;-62
2024/04/01 10:27:15;;;;;;;21.15;15.30;;;12.40;99.90;;;;;;5039981;28;20044;-62
2024/04/01 10:30:00;;;;;;;19.60;14.98;;;12.40;99.90;;;;;;5037841;28;20044;-62
2024/04/01 10:32:58;;;;;;;18.60;14.48;;;12.60;99.90;;;;;;5040246;28;20048;-62
2024/04/01 10:35:32;;;;;;;16.60;13.68;;;12.50;99.90;;;;;;5036115;28;20373;-62
2024/04/01 10:38:24;;;;;;;21.70;15.90;;;12.50;99.90;;;;;;5038012;28;20056;-62
2024/04/01 10:41:08;;;;;;;20.00;15.13;;;12.50;99.90;;;;;;5037766;28;20056;-62
2024/04/01 10:43:59;;;;;;;22.48;16.10;;;12.60;99.90;;;;;;5034988;28;20068;-62
2024/04/01 10:46:56;;;;;;;19.65;15.65;;;12.60;99.90;;;;;;5038153;28;20530;-62
2024/04/01 10:49:33;;;;;;;19.83;15.55;;;12.70;99.90;;;;;;5038217;28;20044;-61
2024/04/01 10:52:23;;;;;;;17.67;15.77;;;12.80;99.90;;;;;;5033516;28;20048;-61
2024/04/01 10:55:01;;;;;;;21.65;16.00;;;12.80;99.90;;;;;;5037026;28;20607;-61
2024/04/01 10:57:47;;;;;;;20.75;15.65;;;12.80;99.90;;;;;;5036590;28;20231;-62
2024/04/01 11:00:31;;;;;;;25.88;18.05;;;12.90;99.90;;;;;;5037950;28;20563;-62
2024/04/01 11:03:19;;;;;;;19.88;17.80;;;13.00;99.90;;;;;;5033011;28;20057;-62
2024/04/01 11:06:05;;;;;;;20.58;18.38;;;13.00;99.90;;;;;;5032145;28;20131;-62
2024/04/01 11:08:56;;;;;;;28.67;18.55;;;13.10;99.90;;;;;;5037380;28;20067;-62
2024/04/01 11:11:48;;;;;;;20.10;17.23;;;13.10;99.90;;;;;;5037720;28;20098;-62
2024/04/01 11:14:16;;;;;;;21.45;17.60;;;13.20;99.90;;;;;;5036122;28;20040;-62
2024/04/01 11:16:44;;;;;;;19.73;17.63;;;13.10;99.90;;;;;;5035986;28;20045;-61
2024/04/01 11:19:53;;;;;;;21.15;16.98;;;13.10;99.90;;;;;;5039142;28;20389;-61
2024/04/01 11:22:48;;;;;;;21.52;17.60;;;13.10;99.90;;;;;;5034878;28;20044;-61
2024/04/01 11:25:27;;;;;;;18.83;16.90;;;13.00;99.90;;;;;;5029652;28;20056;-62
2024/04/01 11:28:04;;;;;;;19.77;16.92;;;12.90;99.90;;;;;;5036082;28;20515;-61
2024/04/01 11:30:37;;;;;;;21.55;17.30;;;13.00;99.90;;;;;;5036037;28;20289;-61
2024/04/01 11:33:16;;;;;;;21.67;17.50;;;13.00;99.90;;;;;;5032478;28;20037;-62
2024/04/01 11:35:50;;;;;;;21.08;18.85;;;13.00;99.90;;;;;;5032630;28;20069;-62
2024/04/01 11:38:34;;;;;;;21.77;19.17;;;13.00;99.90;;;;;;5034630;28;20033;-61
2024/04/01 11:41:03;;;;;;;21.80;19.33;;;13.10;99.90;;;;;;5033853;28;20203;-62
2024/04/01 11:43:32;;;;;;;21.88;19.58;;;13.10;99.90;;;;;;5029113;28;20155;-61
2024/04/01 11:46:00;;;;;;;21.02;18.48;;;13.20;99.90;;;;;;5035109;28;20067;-62
2024/04/01 11:48:26;;;;;;;19.98;17.98;;;13.20;99.90;;;;;;5033290;28;20041;-62
2024/04/01 11:50:57;;;;;;;20.77;17.05;;;13.30;99.90;;;;;;5037221;28;20045;-61
2024/04/01 11:53:22;;;;;;;19.77;17.67;;;13.30;99.90;;;;;;5036410;28;20462;-61
2024/04/01 11:55:56;;;;;;;19.42;17.42;;;13.40;99.90;;;;;;5035804;28;20037;-61
2024/04/01 11:58:22;;;;;;;17.83;16.13;;;13.70;99.90;;;;;;5037381;28;20046;-62
2024/04/01 12:00:51;;;;;;;21.77;19.55;;;13.70;99.90;;;;;;5035376;28;20070;-62
2024/04/01 12:03:17;;;;;;;25.33;21.65;;;13.70;99.90;;;;;;5038100;28;20208;-61
2024/04/01 12:05:54;;;;;;;23.52;21.05;;;13.60;99.90;;;;;;5037664;28;20067;-62
2024/04/01 12:08:22;;;;;;;22.58;20.15;;;13.60;99.90;;;;;;5038759;28;20499;-61
2024/04/01 12:10:48;;;;;;;25.25;22.52;;;13.70;99.90;;;;;;5037048;28;20058;-62
2024/04/01 12:13:24;;;;;;;25.45;22.85;;;13.70;99.90;;;;;;5037591;28;20037;-62
2024/04/01 12:15:50;;;;;;;24.25;21.23;;;13.70;99.90;;;;;;5036095;28;20044;-61
2024/04/01 12:18:16;;;;;;;23.83;21.42;;;13.70;99.90;;;;;;5053253;28;20067;-62
2024/04/01 12:20:43;;;;;;;25.00;22.50;;;13.60;99.90;;;;;;5038830;28;20044;-62
2024/04/01 12:23:12;;;;;;;26.35;22.60;;;13.50;99.90;;;;;;5036290;28;20532;-61
2024/04/01 12:25:38;;;;;;;25.02;22.42;;;13.50;99.90;;;;;;5038125;28;20043;-61
2024/04/01 12:28:08;;;;;;;26.13;23.20;;;13.40;99.90;;;;;;5036251;28;20041;-62
2024/04/01 12:30:36;;;;;;;23.27;20.77;;;13.30;99.90;;;;;;5036004;28;20057;-62
2024/04/01 12:33:04;;;;;;;21.73;19.63;;;13.20;99.90;;;;;;5036133;28;20360;-62
2024/04/01 12:35:32;;;;;;;22.07;19.73;;;13.10;99.90;;;;;;5037465;28;20685;-61
2024/04/01 12:38:03;;;;;;;22.55;20.25;;;13.00;99.90;;;;;;5036922;28;20907;-61
2024/04/01 12:40:41;;;;;;;22.67;19.88;;;13.00;99.90;;;;;;5036881;28;20052;-61
2024/04/01 12:43:06;;;;;;;22.02;19.73;;;13.00;99.90;;;;;;5036126;28;20595;-61